createdAt,value
2022-11-06T00:01:25.556Z,96977.28
2022-11-06T00:03:53.659Z,96980.84
2022-11-06T00:06:39.277Z,96975.72
2022-11-06T00:09:09.812Z,96973.56
2022-11-06T00:11:36.680Z,96980.13
2022-11-06T00:14:03.978Z,96975.88
2022-11-06T00:16:30.958Z,96980.13
2022-11-06T00:19:01.496Z,96977.13
2022-11-06T00:21:30.308Z,96982.63
2022-11-06T00:24:01.788Z,96981.00
2022-11-06T00:26:30.782Z,96972.88
2022-11-06T00:28:58.147Z,96964.38
2022-11-06T00:31:31.893Z,96968.94
2022-11-06T00:34:00.339Z,96960.91
2022-11-06T00:36:32.349Z,96959.41
2022-11-06T00:39:00.292Z,96953.44
2022-11-06T00:41:27.769Z,96960.88
2022-11-06T00:44:02.548Z,96957.63
2022-11-06T00:46:29.642Z,96957.63
2022-11-06T00:48:56.924Z,96944.78
2022-11-06T00:51:30.992Z,96954.16
2022-11-06T00:54:01.641Z,96956.69
2022-11-06T00:56:29.052Z,96949.44
2022-11-06T00:58:58.990Z,96964.13
2022-11-06T01:01:35.742Z,96967.06
2022-11-06T01:04:12.793Z,96969.66
2022-11-06T01:06:43.051Z,96961.16
2022-11-06T01:09:13.622Z,96963.50
2022-11-06T01:14:35.234Z,96941.84
2022-11-06T01:17:02.083Z,96949.78
2022-11-06T01:19:28.889Z,96956.22
2022-11-06T01:21:55.734Z,96954.91
2022-11-06T01:24:26.279Z,96944.25
2022-11-06T01:27:20.355Z,96928.16
2022-11-06T01:29:40.688Z,96933.88
2022-11-06T01:32:07.869Z,96933.59
2022-11-06T01:34:34.686Z,96940.97
2022-11-06T01:37:01.795Z,96931.97
2022-11-06T01:39:28.582Z,96928.72
2022-11-06T01:41:55.737Z,96927.91
2022-11-06T01:44:44.303Z,96926.84
2022-11-06T01:47:22.993Z,96922.59
2022-11-06T01:49:53.680Z,96925.47
2022-11-06T01:52:21.764Z,96920.25
2022-11-06T01:54:58.475Z,96919.97
2022-11-06T01:57:25.576Z,96922.72
2022-11-06T01:59:55.207Z,96926.84
2022-11-06T02:02:22.745Z,96918.34
2022-11-06T02:04:50.430Z,96912.56
2022-11-06T02:07:18.918Z,96911.47
2022-11-06T02:09:46.249Z,96918.56
2022-11-06T02:12:43.186Z,96917.41
2022-11-06T02:15:46.447Z,96915.19
2022-11-06T02:18:40.401Z,96922.63
2022-11-06T02:21:41.417Z,96925.88
2022-11-06T02:24:24.523Z,96925.50
2022-11-06T02:27:23.563Z,96918.00
2022-11-06T02:30:13.840Z,96917.41
2022-11-06T02:32:55.270Z,96916.72
2022-11-06T02:35:33.687Z,96913.56
2022-11-06T02:38:09.157Z,96910.25
2022-11-06T02:40:42.250Z,96915.31
2022-11-06T02:43:09.701Z,96912.41
2022-11-06T02:46:10.246Z,96913.22
2022-11-06T02:48:49.551Z,96910.75
2022-11-06T02:51:22.016Z,96905.06
2022-11-06T02:53:49.516Z,96907.28
2022-11-06T02:56:22.831Z,96901.03
2022-11-06T02:58:57.761Z,96897.09
2022-11-06T03:01:48.688Z,96894.69
2022-11-06T03:04:32.703Z,96891.47
2022-11-06T03:07:01.404Z,96890.38
2022-11-06T03:09:31.859Z,96891.91
2022-11-06T03:12:14.156Z,96891.78
2022-11-06T03:15:22.750Z,96901.19
2022-11-06T03:18:12.684Z,96902.16
2022-11-06T03:20:54.603Z,96900.84
2022-11-06T03:23:49.127Z,96901.25
2022-11-06T03:26:21.664Z,96891.00
2022-11-06T03:28:56.172Z,96891.22
2022-11-06T03:32:12.995Z,96883.88
2022-11-06T03:34:52.195Z,96891.78
2022-11-06T03:37:29.654Z,96895.41
2022-11-06T03:40:02.800Z,96896.09
2022-11-06T03:42:30.929Z,96896.44
2022-11-06T03:45:04.193Z,96900.09
2022-11-06T03:47:39.623Z,96895.88
2022-11-06T03:50:26.707Z,96906.38
2022-11-06T03:53:12.341Z,96901.19
2022-11-06T03:55:46.302Z,96892.88
2022-11-06T03:58:23.275Z,96895.97
2022-11-06T04:00:53.348Z,96903.00
2022-11-06T04:03:36.051Z,96897.75
2022-11-06T04:06:28.055Z,96898.28
2022-11-06T04:09:17.142Z,96897.03
2022-11-06T04:12:04.522Z,96890.03
2022-11-06T04:14:33.696Z,96890.53
2022-11-06T04:17:07.053Z,96875.84
2022-11-06T04:19:33.814Z,96873.91
2022-11-06T04:22:19.121Z,96878.78
2022-11-06T04:25:12.579Z,96880.47
2022-11-06T04:28:06.083Z,96883.41
2022-11-06T04:30:48.523Z,96880.47
2022-11-06T04:33:43.861Z,96873.81
2022-11-06T04:36:39.398Z,96875.44
2022-11-06T04:39:41.428Z,96877.56
2022-11-06T04:42:25.107Z,96867.44
2022-11-06T04:45:02.741Z,96864.50
2022-11-06T04:47:30.030Z,96850.78
2022-11-06T04:49:59.159Z,96850.44
2022-11-06T04:52:28.692Z,96847.81
2022-11-06T04:54:57.626Z,96844.91
2022-11-06T04:57:24.998Z,96846.53
2022-11-06T04:59:52.060Z,96842.94
2022-11-06T05:02:18.937Z,96829.53
2022-11-06T05:04:45.835Z,96834.75
2022-11-06T05:07:14.547Z,96832.47
2022-11-06T05:09:42.389Z,96833.75
2022-11-06T05:12:09.353Z,96843.91
2022-11-06T05:14:36.126Z,96847.81
2022-11-06T05:17:02.944Z,96833.75
2022-11-06T05:19:29.721Z,96831.16
2022-11-06T05:22:14.929Z,96829.84
2022-11-06T05:24:41.691Z,96832.47
2022-11-06T05:27:08.514Z,96834.72
2022-11-06T05:29:35.301Z,96826.38
2022-11-06T05:32:02.123Z,96822.63
2022-11-06T05:34:28.968Z,96810.22
2022-11-06T05:36:56.935Z,96819.84
2022-11-06T05:39:23.854Z,96821.00
2022-11-06T05:41:50.615Z,96823.59
2022-11-06T05:44:17.527Z,96816.75
2022-11-06T05:46:49.308Z,96815.28
2022-11-06T05:49:18.650Z,96819.69
2022-11-06T05:51:46.624Z,96818.22
2022-11-06T05:54:14.088Z,96817.41
2022-11-06T05:56:40.875Z,96824.78
2022-11-06T05:59:07.728Z,96820.22
2022-11-06T06:01:34.689Z,96834.88
2022-11-06T06:04:01.512Z,96831.81
2022-11-06T06:06:28.737Z,96822.63
2022-11-06T06:08:55.569Z,96816.13
2022-11-06T06:11:22.377Z,96815.44
2022-11-06T06:13:49.210Z,96810.38
2022-11-06T06:16:16.195Z,96798.31
2022-11-06T06:18:43.025Z,96795.34
2022-11-06T06:21:10.018Z,96800.06
2022-11-06T06:23:36.826Z,96801.03
2022-11-06T06:26:05.055Z,96797.78
2022-11-06T06:28:32.821Z,96805.44
2022-11-06T06:31:01.863Z,96789.94
2022-11-06T06:33:29.006Z,96791.91
2022-11-06T06:35:55.819Z,96787.34
2022-11-06T06:38:22.753Z,96793.25
2022-11-06T06:40:49.744Z,96792.09
2022-11-06T06:43:16.605Z,96792.28
2022-11-06T06:45:43.776Z,96778.41
2022-11-06T06:48:10.796Z,96796.66
2022-11-06T06:50:38.235Z,96800.13
2022-11-06T06:53:05.049Z,96790.59
2022-11-06T06:55:31.821Z,96792.94
2022-11-06T06:57:59.883Z,96791.13
2022-11-06T07:00:28.299Z,96792.94
2022-11-06T07:02:55.491Z,96791.63
2022-11-06T07:05:22.374Z,96792.09
2022-11-06T07:07:49.191Z,96789.03
2022-11-06T07:10:16.576Z,96791.94
2022-11-06T07:12:43.443Z,96799.00
2022-11-06T07:15:10.771Z,96800.78
2022-11-06T07:17:37.574Z,96798.31
2022-11-06T07:20:05.295Z,96808.63
2022-11-06T07:22:37.031Z,96814.34
2022-11-06T07:25:06.027Z,96807.28
2022-11-06T07:27:33.483Z,96818.41
2022-11-06T07:30:00.573Z,96820.72
2022-11-06T07:32:27.718Z,96808.28
2022-11-06T07:34:55.218Z,96815.66
2022-11-06T07:37:22.068Z,96820.03
2022-11-06T07:39:48.915Z,96823.94
2022-11-06T07:42:16.784Z,96829.81
2022-11-06T07:44:43.675Z,96833.09
2022-11-06T07:47:10.443Z,96823.59
2022-11-06T07:49:37.273Z,96826.50
2022-11-06T07:52:06.009Z,96831.75
2022-11-06T07:54:32.791Z,96824.88
2022-11-06T07:56:59.607Z,96826.16
2022-11-06T07:59:26.416Z,96831.69
2022-11-06T08:01:53.291Z,96821.28
2022-11-06T08:04:20.224Z,96822.09
2022-11-06T08:06:47.047Z,96814.75
2022-11-06T08:09:13.899Z,96809.16
2022-11-06T08:11:40.734Z,96811.75
2022-11-06T08:14:07.623Z,96806.56
2022-11-06T08:16:34.456Z,96801.84
2022-11-06T08:19:01.366Z,96802.97
2022-11-06T08:21:28.464Z,96782.34
2022-11-06T08:23:55.255Z,96778.44
2022-11-06T08:26:22.097Z,96784.13
2022-11-06T08:28:48.883Z,96781.38
2022-11-06T08:31:15.987Z,96775.47
2022-11-06T08:33:42.803Z,96769.22
2022-11-06T08:36:10.396Z,96755.47
2022-11-06T08:38:37.195Z,96755.16
2022-11-06T08:41:12.155Z,96754.91
2022-11-06T08:43:39.834Z,96741.97
2022-11-06T08:46:08.473Z,96758.78
2022-11-06T08:48:35.493Z,96762.19
2022-11-06T08:51:04.413Z,96767.44
2022-11-06T08:53:31.359Z,96766.88
2022-11-06T08:55:58.207Z,96768.22
2022-11-06T08:58:25.070Z,96772.38
2022-11-06T09:00:51.946Z,96765.38
2022-11-06T09:03:18.988Z,96767.56
2022-11-06T09:05:46.356Z,96759.66
2022-11-06T09:08:14.322Z,96747.78
2022-11-06T09:10:42.841Z,96741.03
2022-11-06T09:13:10.747Z,96744.44
2022-11-06T09:15:38.419Z,96733.16
2022-11-06T09:18:05.467Z,96721.03
2022-11-06T09:20:32.243Z,96719.50
2022-11-06T09:23:08.065Z,96706.53
2022-11-06T09:25:35.021Z,96704.44
2022-11-06T09:28:01.967Z,96701.09
2022-11-06T09:30:31.384Z,96696.59
2022-11-06T09:33:01.491Z,96697.50
2022-11-06T09:35:31.447Z,96685.47
2022-11-06T09:38:08.564Z,96682.19
2022-11-06T09:40:58.313Z,96675.03
2022-11-06T09:44:05.275Z,96667.59
2022-11-06T09:46:42.962Z,96652.91
2022-11-06T09:49:24.849Z,96645.69
2022-11-06T09:52:08.742Z,96643.09
2022-11-06T09:55:00.280Z,96641.56
2022-11-06T09:57:46.659Z,96626.34
2022-11-06T10:00:16.628Z,96626.03
2022-11-06T10:02:50.319Z,96624.34
2022-11-06T10:05:26.231Z,96624.91
2022-11-06T10:07:57.507Z,96617.56
2022-11-06T10:10:36.118Z,96619.75
2022-11-06T10:13:45.818Z,96620.22
2022-11-06T10:17:04.607Z,96616.91
2022-11-06T10:19:57.590Z,96603.22
2022-11-06T10:22:39.798Z,96593.09
2022-11-06T10:25:22.041Z,96590.38
2022-11-06T10:28:05.536Z,96587.19
2022-11-06T10:31:02.106Z,96584.56
2022-11-06T10:34:05.621Z,96577.19
2022-11-06T10:36:50.117Z,96570.72
2022-11-06T10:39:33.090Z,96561.00
2022-11-06T10:42:16.158Z,96566.69
2022-11-06T10:44:50.042Z,96560.59
2022-11-06T10:47:32.380Z,96554.00
2022-11-06T10:50:03.302Z,96553.53
2022-11-06T10:52:36.681Z,96539.50
2022-11-06T10:55:40.966Z,96533.34
2022-11-06T10:58:13.030Z,96530.41
2022-11-06T11:00:40.714Z,96517.44
2022-11-06T11:03:28.448Z,96509.38
2022-11-06T11:05:55.721Z,96495.22
2022-11-06T11:08:34.176Z,96500.03
2022-11-06T11:11:23.567Z,96491.09
2022-11-06T11:13:56.291Z,96471.97
2022-11-06T11:16:27.048Z,96474.72
2022-11-06T11:18:54.097Z,96470.63
2022-11-06T11:21:30.152Z,96458.59
2022-11-06T11:24:07.160Z,96458.72
2022-11-06T11:26:43.488Z,96447.84
2022-11-06T11:29:29.495Z,96444.25
2022-11-06T11:32:00.630Z,96442.59
2022-11-06T11:34:30.585Z,96436.41
2022-11-06T11:37:00.640Z,96439.34
2022-11-06T11:39:34.836Z,96430.88
2022-11-06T11:42:24.060Z,96421.16
2022-11-06T11:45:09.033Z,96415.13
2022-11-06T11:47:42.409Z,96422.03
2022-11-06T11:50:31.661Z,96409.00
2022-11-06T11:53:10.149Z,96392.44
2022-11-06T11:55:43.832Z,96392.13
2022-11-06T11:58:26.135Z,96391.94
2022-11-06T12:01:03.457Z,96371.41
2022-11-06T12:03:39.806Z,96377.63
2022-11-06T12:06:18.577Z,96369.72
2022-11-06T12:08:53.032Z,96377.31
2022-11-06T12:11:26.418Z,96365.72
2022-11-06T12:14:21.088Z,96358.63
2022-11-06T12:16:55.206Z,96357.75
2022-11-06T12:19:26.271Z,96359.84
2022-11-06T12:21:58.991Z,96364.16
2022-11-06T12:25:09.651Z,96366.78
2022-11-06T12:27:48.729Z,96367.22
2022-11-06T12:30:18.680Z,96367.47
2022-11-06T12:33:01.527Z,96364.88
2022-11-06T12:35:41.921Z,96359.66
2022-11-06T12:38:44.732Z,96355.16
2022-11-06T12:41:15.459Z,96348.66
2022-11-06T12:43:51.075Z,96358.03
2022-11-06T12:46:44.132Z,96348.56
2022-11-06T12:49:41.455Z,96353.94
2022-11-06T12:52:32.780Z,96363.44
2022-11-06T12:55:24.041Z,96364.75
2022-11-06T12:58:19.099Z,96371.34
2022-11-06T13:00:56.661Z,96376.47
2022-11-06T13:03:41.653Z,96369.78
2022-11-06T13:06:21.769Z,96366.19
2022-11-06T13:09:14.467Z,96357.34
2022-11-06T13:12:18.790Z,96348.59
2022-11-06T13:15:29.916Z,96349.78
2022-11-06T13:18:25.301Z,96350.59
2022-11-06T13:21:23.052Z,96336.56
2022-11-06T13:23:53.604Z,96334.66
2022-11-06T13:26:30.975Z,96337.28
2022-11-06T13:29:03.968Z,96326.13
2022-11-06T13:32:03.303Z,96309.00
2022-11-06T13:34:35.361Z,96315.41
2022-11-06T13:37:02.426Z,96307.13
2022-11-06T13:39:37.450Z,96308.56
2022-11-06T13:42:19.203Z,96297.44
2022-11-06T13:44:46.819Z,96290.47
2022-11-06T13:47:35.089Z,96280.25
2022-11-06T13:50:14.422Z,96266.16
2022-11-06T13:52:58.730Z,96267.84
2022-11-06T13:55:49.718Z,96261.03
2022-11-06T13:58:36.366Z,96258.19
2022-11-06T14:01:11.420Z,96255.38
2022-11-06T14:03:54.962Z,96251.44
2022-11-06T14:06:25.087Z,96241.66
2022-11-06T14:08:59.678Z,96230.91
2022-11-06T14:11:34.131Z,96228.44
2022-11-06T14:14:05.627Z,96219.41
2022-11-06T14:16:39.213Z,96217.59
2022-11-06T14:19:21.084Z,96212.75
2022-11-06T14:21:58.296Z,96204.34
2022-11-06T14:24:42.242Z,96211.31
2022-11-06T14:27:24.348Z,96213.72
2022-11-06T14:30:50.442Z,96203.78
2022-11-06T14:33:41.977Z,96208.25
2022-11-06T14:36:24.095Z,96208.63
2022-11-06T14:38:52.439Z,96201.78
2022-11-06T14:41:34.583Z,96203.25
2022-11-06T14:44:26.297Z,96205.06
2022-11-06T14:47:03.856Z,96192.94
2022-11-06T14:49:42.105Z,96204.44
2022-11-06T14:52:13.190Z,96204.41
2022-11-06T14:54:51.724Z,96207.75
2022-11-06T14:57:46.359Z,96227.63
2022-11-06T15:00:42.069Z,96225.22
2022-11-06T15:03:22.356Z,96223.81
2022-11-06T15:05:52.321Z,96214.41
2022-11-06T15:08:54.004Z,96209.75
2022-11-06T15:11:29.799Z,96217.94
2022-11-06T15:14:16.957Z,96224.66
2022-11-06T15:17:11.684Z,96218.69
2022-11-06T15:19:48.055Z,96211.81
2022-11-06T15:22:22.160Z,96205.84
2022-11-06T15:25:17.792Z,96209.22
2022-11-06T15:27:55.578Z,96207.22
2022-11-06T15:30:22.383Z,96210.88
2022-11-06T15:32:52.237Z,96207.31
2022-11-06T15:35:27.515Z,96203.06
2022-11-06T15:38:06.571Z,96197.22
2022-11-06T15:40:37.549Z,96204.94
2022-11-06T15:43:30.204Z,96196.00
2022-11-06T15:46:07.748Z,96189.53
2022-11-06T15:48:35.114Z,96185.91
2022-11-06T15:51:01.961Z,96185.50
2022-11-06T15:53:30.239Z,96195.78
2022-11-06T15:56:06.054Z,96195.19
2022-11-06T15:58:36.525Z,96196.13
2022-11-06T16:01:06.441Z,96191.03
2022-11-06T16:03:52.399Z,96200.75
2022-11-06T16:06:20.241Z,96215.50
2022-11-06T16:08:48.910Z,96222.38
2022-11-06T16:11:19.240Z,96220.94
2022-11-06T16:13:46.903Z,96218.31
2022-11-06T16:16:42.580Z,96212.63
2022-11-06T16:19:36.627Z,96217.09
2022-11-06T16:22:13.608Z,96221.75
2022-11-06T16:24:53.938Z,96227.59
2022-11-06T16:27:23.412Z,96220.91
2022-11-06T16:29:58.875Z,96215.16
2022-11-06T16:32:30.022Z,96220.59
2022-11-06T16:34:56.879Z,96219.72
2022-11-06T16:37:29.791Z,96215.72
2022-11-06T16:39:59.401Z,96217.75
2022-11-06T16:42:38.812Z,96218.88
2022-11-06T16:45:16.137Z,96214.84
2022-11-06T16:47:42.957Z,96213.22
2022-11-06T16:50:43.651Z,96208.38
2022-11-06T16:53:11.186Z,96210.81
2022-11-06T16:55:38.227Z,96209.25
2022-11-06T16:58:05.148Z,96218.09
2022-11-06T17:00:33.196Z,96217.69
2022-11-06T17:03:05.564Z,96222.50
2022-11-06T17:05:36.652Z,96236.25
2022-11-06T17:08:18.842Z,96247.09
2022-11-06T17:10:48.420Z,96235.38
2022-11-06T17:13:18.021Z,96244.66
2022-11-06T17:16:11.407Z,96245.63
2022-11-06T17:18:39.387Z,96239.28
2022-11-06T17:21:38.712Z,96242.09
2022-11-06T17:24:24.364Z,96249.38
2022-11-06T17:26:53.671Z,96238.25
2022-11-06T17:29:22.313Z,96250.25
2022-11-06T17:31:51.227Z,96248.50
2022-11-06T17:34:18.040Z,96240.06
2022-11-06T17:36:44.844Z,96243.91
2022-11-06T17:39:11.633Z,96250.53
2022-11-06T17:41:38.391Z,96248.16
2022-11-06T17:44:06.808Z,96246.13
2022-11-06T17:46:40.616Z,96246.53
2022-11-06T17:49:10.553Z,96241.66
2022-11-06T17:51:53.430Z,96245.28
2022-11-06T17:54:25.568Z,96248.28
2022-11-06T17:56:54.967Z,96239.19
2022-11-06T17:59:23.861Z,96251.66
2022-11-06T18:01:52.100Z,96246.41
2022-11-06T18:04:21.751Z,96249.28
2022-11-06T18:06:52.048Z,96246.16
2022-11-06T18:09:20.674Z,96242.66
2022-11-06T18:11:51.911Z,96253.94
2022-11-06T18:14:19.619Z,96245.91
2022-11-06T18:16:46.882Z,96248.88
2022-11-06T18:19:18.308Z,96254.38
2022-11-06T18:21:45.708Z,96269.09
2022-11-06T18:24:12.608Z,96269.09
2022-11-06T18:26:40.238Z,96266.47
2022-11-06T18:29:08.420Z,96273.19
2022-11-06T18:31:36.062Z,96267.28
2022-11-06T18:34:04.672Z,96268.47
2022-11-06T18:36:36.619Z,96266.00
2022-11-06T18:39:05.248Z,96266.34
2022-11-06T18:41:32.280Z,96265.09
2022-11-06T18:43:59.785Z,96270.72
2022-11-06T18:46:27.896Z,96266.47
2022-11-06T18:48:58.345Z,96268.47
2022-11-06T18:51:35.685Z,96265.84
2022-11-06T18:54:06.749Z,96264.88
2022-11-06T18:56:36.129Z,96260.63
2022-11-06T18:59:05.638Z,96263.84
2022-11-06T19:01:34.618Z,96265.09
2022-11-06T19:04:03.626Z,96272.34
2022-11-06T19:06:31.168Z,96258.25
2022-11-06T19:08:58.836Z,96273.97
2022-11-06T19:11:25.664Z,96268.47
2022-11-06T19:13:52.541Z,96273.72
2022-11-06T19:16:19.727Z,96283.19
2022-11-06T19:21:30.594Z,96270.72
2022-11-06T19:24:04.556Z,96278.03
2022-11-06T19:26:36.879Z,96285.91
2022-11-06T19:29:07.457Z,96284.44
2022-11-06T19:31:37.385Z,96290.03
2022-11-06T19:34:07.255Z,96285.06
2022-11-06T19:36:35.451Z,96274.78
2022-11-06T19:39:03.090Z,96282.00
2022-11-06T19:41:30.160Z,96282.81
2022-11-06T19:43:57.042Z,96284.44
2022-11-06T19:46:28.517Z,96286.44
2022-11-06T19:49:00.828Z,96293.28
2022-11-06T19:51:28.023Z,96285.06
2022-11-06T19:53:55.231Z,96297.78
2022-11-06T19:56:22.796Z,96297.16
2022-11-06T19:58:50.707Z,96295.81
2022-11-06T20:01:19.982Z,96290.91
2022-11-06T20:03:47.159Z,96295.88
2022-11-06T20:06:15.023Z,96303.28
2022-11-06T20:08:42.645Z,96307.25
2022-11-06T20:11:13.236Z,96313.31
2022-11-06T20:13:42.119Z,96316.19
2022-11-06T20:16:17.320Z,96321.78
2022-11-06T20:18:58.928Z,96327.91
2022-11-06T20:21:31.260Z,96324.94
2022-11-06T20:23:58.405Z,96321.91
2022-11-06T20:26:25.673Z,96329.19
2022-11-06T20:28:52.718Z,96329.91
2022-11-06T20:31:21.719Z,96332.28
2022-11-06T20:33:49.863Z,96337.16
2022-11-06T20:36:24.649Z,96338.16
2022-11-06T20:38:55.402Z,96341.59
2022-11-06T20:41:23.702Z,96343.63
2022-11-06T20:43:53.050Z,96339.59
2022-11-06T20:46:21.196Z,96344.44
2022-11-06T20:48:49.548Z,96345.91
2022-11-06T20:51:23.043Z,96349.50
2022-11-06T20:53:51.041Z,96345.09
2022-11-06T20:56:21.809Z,96343.63
2022-11-06T20:58:48.870Z,96342.00
2022-11-06T21:01:23.339Z,96344.03
2022-11-06T21:03:51.845Z,96350.88
2022-11-06T21:06:21.445Z,96346.38
2022-11-06T21:08:48.665Z,96350.63
2022-11-06T21:11:20.164Z,96350.00
2022-11-06T21:13:50.533Z,96355.88
2022-11-06T21:16:37.323Z,96354.88
2022-11-06T21:19:05.515Z,96361.34
2022-11-06T21:21:37.048Z,96358.94
2022-11-06T21:24:04.843Z,96360.50
2022-11-06T21:26:35.345Z,96357.56
2022-11-06T21:29:05.931Z,96367.69
2022-11-06T21:31:33.540Z,96366.00
2022-11-06T21:34:03.693Z,96370.25
2022-11-06T21:36:34.504Z,96371.84
2022-11-06T21:39:07.632Z,96367.22
2022-11-06T21:41:35.229Z,96374.75
2022-11-06T21:44:03.640Z,96374.75
2022-11-06T21:46:30.412Z,96381.22
2022-11-06T21:48:57.686Z,96380.47
2022-11-06T21:51:31.460Z,96384.16
2022-11-06T21:54:18.070Z,96388.97
2022-11-06T21:56:48.340Z,96401.63
2022-11-06T21:59:18.267Z,96394.97
2022-11-06T22:01:45.239Z,96410.69
2022-11-06T22:04:12.783Z,96416.94
2022-11-06T22:06:43.625Z,96420.84
2022-11-06T22:09:12.361Z,96418.56
2022-11-06T22:11:42.493Z,96423.97
2022-11-06T22:14:15.366Z,96428.78
2022-11-06T22:16:45.252Z,96432.75
2022-11-06T22:19:14.558Z,96439.38
2022-11-06T22:21:42.739Z,96434.75
2022-11-06T22:24:12.982Z,96442.16
2022-11-06T22:26:40.421Z,96437.53
2022-11-06T22:29:11.956Z,96441.41
2022-11-06T22:31:39.121Z,96435.78
2022-11-06T22:34:06.196Z,96439.28
2022-11-06T22:36:33.170Z,96440.81
2022-11-06T22:39:06.363Z,96426.56
2022-11-06T22:41:33.397Z,96428.13
2022-11-06T22:44:01.215Z,96423.31
2022-11-06T22:46:29.159Z,96434.94
2022-11-06T22:48:57.082Z,96434.31
2022-11-06T22:51:27.815Z,96439.19
2022-11-06T22:53:55.816Z,96436.81
2022-11-06T22:56:25.152Z,96445.94
2022-11-06T22:59:03.688Z,96447.75
2022-11-06T23:01:34.968Z,96445.53
2022-11-06T23:04:09.979Z,96445.94
2022-11-06T23:06:36.821Z,96443.94
2022-11-06T23:09:03.720Z,96443.47
2022-11-06T23:11:30.550Z,96437.41
2022-11-06T23:14:03.307Z,96441.88
2022-11-06T23:16:52.750Z,96433.59
2022-11-06T23:19:20.804Z,96427.34
2022-11-06T23:21:47.718Z,96430.97
2022-11-06T23:24:14.843Z,96437.88
2022-11-06T23:26:43.869Z,96430.97
2022-11-06T23:29:10.738Z,96429.75
2022-11-06T23:31:37.548Z,96437.00
2022-11-06T23:34:04.381Z,96431.19
2022-11-06T23:36:31.178Z,96429.38
2022-11-06T23:38:58.061Z,96444.97
2022-11-06T23:41:43.097Z,96439.16
2022-11-06T23:44:29.915Z,96439.16
2022-11-06T23:46:57.865Z,96442.94
2022-11-06T23:49:24.887Z,96443.69
2022-11-06T23:51:51.887Z,96444.94
2022-11-06T23:54:18.669Z,96435.94
2022-11-06T23:56:45.472Z,96432.91
2022-11-06T23:59:12.792Z,96443.03
